Terminal Aerodrome Forecast
Issued by NWS

Home | Current Version | Previous Version | Text Only | Print | Product List | Glossary On
Versions: 1 2 3 4 5 6 7 8 9 10 11 12 13 14 15 16 17 18 19 20 21 22 23 24
000
FTUS43 KDLH 211608 AAB
TAFHIB
TAF AMD
KHIB 211608Z 2116/2212 24004KT 4SM BR OVC003
     FM211700 19005KT P6SM SCT003
     FM212300 21004KT P6SM BKN035
     FM220100 00000KT P6SM BKN040
     FM220600 VRB03KT P6SM VCSH BKN015=

USA.gov is the U.S. government's official web portal to all federal, state and local government web resources and services.